COOK1: Arkansas River Nr Coolidge, KS

Data processed at Thu Jan 04 2018 23:29


All information presented herein is the property of the government of the United States of America and may be revised or deleted at any time without prior notice.
Dissemination of this information without the expressed written consent of the Public Affairs Office, Tulsa District U.S. Army Corps of Engineers is strictly prohibited.
These data are gathered electronically and, as presented, have not undergone any form of quality control. These data are not guaranteed to be valid or correct.
Go to home page.
Go to station list.

Upstream stations:

Downstream station:
Previous Day
Next Day
Current Day
    
SHEF ID:       COOK1     ARKANSAS R NR COOLIDGE, KS
STATION TYPE:  

               PRECIP     STAGE  STAGE(2)  RIV-FLOW  WTR-TEMP   CONDUCT  BAT-LOAD
                   in        ft        ft       cfs         F   umho/cm      volt
              Ccp-Rev   Ccp-Rev   Ccp-Rev   Ccp-Rev   Ccp-Rev   Ccp-Rev   Ccp-Rev
(US/Central)
01/02 00:00      0.00      3.23      3.21       156     31.82      6937     12.71
01/02 01:00      0.00      3.24      3.21       158     31.82      6948     12.65
01/02 02:00      0.00      3.25      3.19       159     31.82      6944     12.60
01/02 03:00      0.00      3.26      3.19       161     31.82      6939     12.54
01/02 04:00      0.00      3.23      3.19       156     31.82      6946     12.48
01/02 05:00      0.00      3.23      3.16       156     31.82      6961     12.48
01/02 06:00      0.00      3.26      3.18       161     31.82      6964      ----
01/02 07:00      0.00      3.26      3.16       161     31.82      6973     12.42
01/02 08:00      0.00      3.37      3.14       177     31.82      6975     12.36
01/02 09:00      0.00      3.48      3.12       194     31.82      7011     12.36
01/02 10:00      0.00      3.46      3.15       191     31.82      7045     13.53
01/02 11:00      0.00      3.20      3.15       152     31.82      7097     13.65
01/02 12:00      0.00      3.17      3.13       148     31.84      6998     13.71
01/02 13:00      0.00      3.19      3.13       151     31.84      7027     13.77
01/02 14:00      0.00      3.22      3.17       155     31.96      7470     13.77
01/02 15:00      0.00      3.22      3.17       155     32.14      7403     13.77
01/02 16:00      0.00      3.24      3.19       158     32.54      7358     13.71
01/02 17:00      0.00      3.25      3.20       159     32.65      7324     13.65
01/02 18:00      0.00      3.26      3.21       161     32.34      7276     13.00
01/02 19:00      0.00      3.28      3.21       164     31.95      7285     13.07
01/02 20:00      0.00      3.27      3.23       162     31.78      7261     13.00
01/02 21:00      0.00      3.32      3.27       169     31.82      6277     12.95
01/02 22:00      0.00      3.33      3.29       171     31.82      6507     12.89
01/02 23:00      0.00      3.34      3.29       172     31.82      6521     12.83